Wilmington, IL (60481)

8:00 PM CST on December 20, 2014 (GMT -0600)
Lavita Shores | Change Station
CLOSE
Current Station
Personal Weather Station
Location: Wilmington, IL
Elevation: 558 ft
Nearby Weather Stations

Elev 558 ft 41.29 °N, 88.15 °W | Updated 6 minutes ago

Overcast
Overcast
32.4 °F
Feels Like 29 °F
N
3.7
Wind Variable Wind from South

Today
High -- | Low -- °F
--% Chance of Precip.
Yesterday
High -- | Low -- °F
Precip. -- in
7:14 AM 4:25 PM
Waning Crescent, 1% visible
Pressure 30.27 in
Visibility 10.0 miles
Clouds Mostly Cloudy 4600 ft
Overcast 6500 ft
Windchill 29 °F
Dew Point 31 °F
Humidity 94%
Rainfall 0.00 in
Snow Depth Not available.
UV 0 out of 12
Pollen .10 out of 12
Air Quality Not available.
Flu Activity Not available.
METAR KJOT 210135Z AUTO 17003KT 10SM BKN046 OVC065 00/M03 A3027 RMK AO2 T00001030

More Conditions Fewer Conditions

Pressure 30.27 in
Visibility 10.0 miles
Clouds Mostly Cloudy 4600 ft
Overcast 6500 ft
Windchill 29 °F
Dew Point 31 °F
Humidity 94%
Rainfall 0.00 in
Snow Depth Not available.
UV 0 out of 12
Pollen .10 out of 12
Air Quality Not available.
Flu Activity Not available.
METAR KJOT 210135Z AUTO 17003KT 10SM BKN046 OVC065 00/M03 A3027 RMK AO2 T00001030

More Conditions Fewer Conditions

10-Day Weather Forecast

Almanac

Astronomy

Dec. 20, 2014 Rise Set
Actual Time
Civil Twilight
Nautical Twilight
Astronomical Twilight
Moon
Length of Visible Light
Length of Day
Tomorrow will be .
, % of the Moon is Illuminated

Today's Extremes

State Highs State Lows

Community

WunderPhotos

Upload Photos

1,779,346 photos uploaded!

WunderBlogs® & News

Nearby

Air Quality

  Air Quality AQ Index Pollutant
Not available.

Snow Depth

Station Depth Elevation

Earthquake Activity

City Distance Mag. Time & Date
Minimum magnitude displayed is 2.5.

Coastal Water Temperatures

Place Temperature

Nearby Weather Stations